Terminal Aerodrome Forecast
Issued by NWS

Home | Current Version | Previous Version | Text Only | Print | Product List | Glossary On
Versions: 1 2 3 4 5 6 7 8 9 10 11
000
FTUS44 KEPZ 281700
TAFTCS
TAF
KTCS 281720Z 2818/2918 17006KT P6SM SCT200
     FM290300 30005KT P6SM SCT120 BKN200
     FM291200 VRB04KT P6SM SKC=

USA.gov is the U.S. government's official web portal to all federal, state and local government web resources and services.